createdAt,value
2017-11-26T00:01:00.644Z,1.90
2017-11-26T00:03:28.195Z,1.90
2017-11-26T00:05:55.724Z,1.90
2017-11-26T00:08:23.291Z,1.90
2017-11-26T00:10:50.821Z,1.90
2017-11-26T00:13:18.339Z,1.90
2017-11-26T00:15:45.888Z,1.80
2017-11-26T00:18:13.416Z,1.70
2017-11-26T00:20:41.723Z,1.70
2017-11-26T00:23:09.248Z,1.70
2017-11-26T00:25:37.567Z,1.70
2017-11-26T00:28:05.096Z,1.70
2017-11-26T00:30:32.641Z,1.60
2017-11-26T00:33:00.159Z,1.60
2017-11-26T00:35:27.701Z,1.60
2017-11-26T00:37:55.233Z,1.60
2017-11-26T00:40:23.557Z,1.60
2017-11-26T00:42:51.853Z,1.60
2017-11-26T00:45:19.375Z,1.50
2017-11-26T00:47:46.919Z,1.60
2017-11-26T00:50:14.504Z,1.60
2017-11-26T00:52:42.055Z,1.60
2017-11-26T00:55:09.583Z,1.60
2017-11-26T00:57:37.124Z,1.60
2017-11-26T01:00:04.648Z,1.60
2017-11-26T01:02:32.179Z,1.60
2017-11-26T01:04:59.695Z,1.50
2017-11-26T01:07:28.012Z,1.50
2017-11-26T01:09:55.543Z,1.50
2017-11-26T01:12:23.129Z,1.60
2017-11-26T01:14:50.664Z,1.60
2017-11-26T01:17:18.214Z,1.60
2017-11-26T01:19:45.735Z,1.70
2017-11-26T01:22:13.276Z,1.70
2017-11-26T01:24:40.808Z,1.80
2017-11-26T01:27:08.371Z,1.80
2017-11-26T01:29:35.891Z,1.70
2017-11-26T01:32:03.407Z,1.80
2017-11-26T01:34:30.949Z,1.80
2017-11-26T01:36:58.476Z,1.90
2017-11-26T01:39:26.016Z,1.90
2017-11-26T01:41:53.546Z,1.90
2017-11-26T01:44:21.097Z,1.90
2017-11-26T01:46:48.623Z,1.90
2017-11-26T01:49:16.928Z,1.90
2017-11-26T01:51:44.463Z,1.80
2017-11-26T01:54:12.781Z,1.80
2017-11-26T01:56:40.360Z,1.80
2017-11-26T01:59:07.916Z,1.80
2017-11-26T02:01:35.439Z,1.80
2017-11-26T02:04:04.513Z,1.90
2017-11-26T02:06:32.040Z,1.90
2017-11-26T02:08:59.565Z,1.90
2017-11-26T02:11:27.954Z,2.00
2017-11-26T02:13:55.496Z,1.90
2017-11-26T02:16:23.047Z,1.90
2017-11-26T02:18:50.573Z,1.90
2017-11-26T02:21:18.124Z,1.80
2017-11-26T02:23:45.649Z,1.80
2017-11-26T02:26:13.189Z,1.80
2017-11-26T02:28:40.725Z,1.80
2017-11-26T02:31:20.019Z,1.80
2017-11-26T02:34:00.289Z,1.70
2017-11-26T02:36:27.831Z,1.70
2017-11-26T02:38:55.351Z,1.70
2017-11-26T02:41:22.888Z,1.70
2017-11-26T02:43:51.192Z,1.70
2017-11-26T02:46:18.731Z,1.60
2017-11-26T02:48:46.252Z,1.70
2017-11-26T02:51:13.793Z,1.80
2017-11-26T02:53:41.320Z,1.80
2017-11-26T02:56:08.881Z,1.80
2017-11-26T02:58:36.403Z,1.80
2017-11-26T03:01:03.924Z,1.80
2017-11-26T03:03:32.229Z,1.80
2017-11-26T03:05:59.747Z,1.80
2017-11-26T03:08:27.296Z,1.80
2017-11-26T03:10:54.816Z,1.90
2017-11-26T03:13:22.350Z,1.80
2017-11-26T03:15:49.872Z,1.80
2017-11-26T03:18:17.471Z,1.80
2017-11-26T03:20:44.995Z,1.80
2017-11-26T03:23:12.547Z,1.80
2017-11-26T03:25:40.071Z,1.80
2017-11-26T03:28:07.631Z,1.80
2017-11-26T03:30:35.160Z,1.80
2017-11-26T03:33:02.684Z,1.80
2017-11-26T03:35:30.992Z,1.80
2017-11-26T03:37:58.512Z,1.80
2017-11-26T03:40:26.091Z,1.80
2017-11-26T03:42:53.604Z,1.80
2017-11-26T03:45:21.148Z,1.80
2017-11-26T03:47:48.668Z,1.80
2017-11-26T03:50:16.209Z,1.80
2017-11-26T03:52:43.727Z,1.80
2017-11-26T03:55:11.267Z,1.80
2017-11-26T03:57:39.557Z,1.80
2017-11-26T04:00:07.870Z,1.80
2017-11-26T04:02:35.399Z,1.80
2017-11-26T04:05:03.718Z,1.70
2017-11-26T04:07:31.253Z,1.70
2017-11-26T04:09:59.560Z,1.80
2017-11-26T04:12:27.096Z,1.70
2017-11-26T04:14:55.387Z,1.80
2017-11-26T04:17:22.929Z,1.80
2017-11-26T04:19:51.221Z,1.80
2017-11-26T04:22:19.529Z,1.80
2017-11-26T04:24:47.052Z,1.80
2017-11-26T04:27:15.378Z,1.90
2017-11-26T04:29:42.916Z,1.80
2017-11-26T04:32:10.463Z,1.90
2017-11-26T04:34:38.766Z,1.90
2017-11-26T04:37:06.324Z,1.90
2017-11-26T04:39:33.855Z,1.90
2017-11-26T04:42:01.409Z,1.90
2017-11-26T04:44:28.936Z,1.90
2017-11-26T04:46:56.480Z,1.90
2017-11-26T04:49:24.767Z,1.90
2017-11-26T04:51:52.308Z,1.90
2017-11-26T04:54:20.607Z,1.90
2017-11-26T04:56:48.912Z,1.90
2017-11-26T04:59:16.439Z,1.90
2017-11-26T05:01:44.783Z,1.90
2017-11-26T05:04:12.330Z,1.90
2017-11-26T05:06:39.858Z,1.90
2017-11-26T05:09:08.174Z,2.00
2017-11-26T05:11:35.696Z,2.00
2017-11-26T05:14:03.998Z,1.90
2017-11-26T05:16:31.527Z,1.90
2017-11-26T05:18:59.079Z,1.90
2017-11-26T05:21:26.599Z,2.00
2017-11-26T05:23:54.140Z,1.90
2017-11-26T05:26:22.440Z,1.90
2017-11-26T05:28:50.000Z,1.90
2017-11-26T05:31:17.524Z,1.90
2017-11-26T05:33:45.048Z,2.00
2017-11-26T05:36:12.600Z,2.00
2017-11-26T05:38:40.132Z,2.00
2017-11-26T05:41:08.439Z,2.00
2017-11-26T05:43:35.970Z,2.00
2017-11-26T05:46:03.518Z,1.90
2017-11-26T05:48:31.051Z,1.90
2017-11-26T05:50:58.593Z,1.90
2017-11-26T05:53:26.127Z,2.00
2017-11-26T05:55:53.671Z,2.00
2017-11-26T05:58:21.196Z,2.00
2017-11-26T06:00:48.743Z,2.00
2017-11-26T06:03:17.045Z,2.00
2017-11-26T06:05:44.591Z,2.00
2017-11-26T06:08:12.900Z,2.00
2017-11-26T06:10:40.467Z,2.00
2017-11-26T06:13:07.989Z,2.00
2017-11-26T06:15:36.289Z,2.00
2017-11-26T06:18:04.600Z,2.00
2017-11-26T06:20:32.119Z,2.00
2017-11-26T06:23:00.429Z,2.00
2017-11-26T06:25:27.958Z,2.00
2017-11-26T06:27:55.507Z,2.00
2017-11-26T06:30:23.040Z,2.00
2017-11-26T06:32:50.587Z,2.00
2017-11-26T06:35:18.116Z,1.90
2017-11-26T06:37:46.435Z,1.80
2017-11-26T06:40:13.961Z,1.70
2017-11-26T06:42:42.272Z,1.70
2017-11-26T06:45:09.791Z,1.70
2017-11-26T06:47:37.352Z,1.70
2017-11-26T06:50:04.879Z,1.70
2017-11-26T06:52:32.416Z,1.70
2017-11-26T06:54:59.966Z,1.70
2017-11-26T06:57:28.259Z,1.60
2017-11-26T06:59:55.804Z,1.50
2017-11-26T07:02:24.105Z,1.60
2017-11-26T07:04:52.424Z,1.60
2017-11-26T07:07:19.952Z,1.60
2017-11-26T07:09:48.276Z,1.70
2017-11-26T07:12:15.808Z,1.70
2017-11-26T07:14:43.327Z,1.70
2017-11-26T07:17:10.867Z,1.80
2017-11-26T07:19:38.387Z,1.80
2017-11-26T07:22:06.699Z,1.90
2017-11-26T07:24:34.221Z,1.90
2017-11-26T07:27:02.531Z,2.00
2017-11-26T07:29:30.056Z,2.00
2017-11-26T07:31:57.600Z,2.00
2017-11-26T07:34:25.124Z,2.00
2017-11-26T07:36:52.676Z,2.00
2017-11-26T07:39:20.208Z,2.00
2017-11-26T07:41:47.756Z,2.00
2017-11-26T07:44:15.286Z,2.00
2017-11-26T07:46:42.831Z,2.10
2017-11-26T07:49:11.119Z,2.10
2017-11-26T07:51:39.403Z,2.10
2017-11-26T07:54:06.967Z,2.10
2017-11-26T07:56:34.509Z,2.10
2017-11-26T07:59:02.838Z,2.20
2017-11-26T08:01:30.361Z,2.10
2017-11-26T08:03:58.673Z,2.20
2017-11-26T08:06:26.201Z,2.20
2017-11-26T08:08:54.512Z,2.40
2017-11-26T08:11:22.039Z,2.50
2017-11-26T08:13:49.561Z,2.60
2017-11-26T08:16:17.106Z,2.70
2017-11-26T08:18:44.640Z,2.70
2017-11-26T08:21:12.184Z,2.70
2017-11-26T08:23:41.255Z,2.70
2017-11-26T08:26:10.640Z,2.80
2017-11-26T08:28:39.161Z,2.90
2017-11-26T08:31:09.175Z,3.00
2017-11-26T08:33:36.700Z,3.80
2017-11-26T08:36:05.029Z,5.50
2017-11-26T08:38:32.558Z,5.50
2017-11-26T08:41:00.075Z,5.40
2017-11-26T08:43:27.616Z,4.80
2017-11-26T08:45:55.136Z,4.30
2017-11-26T08:48:23.440Z,4.90
2017-11-26T08:50:50.970Z,4.80
2017-11-26T08:53:19.277Z,4.70
2017-11-26T08:55:46.808Z,4.70
2017-11-26T08:58:14.348Z,4.40
2017-11-26T09:00:41.869Z,4.10
2017-11-26T09:03:09.416Z,4.30
2017-11-26T09:05:37.721Z,4.10
2017-11-26T09:08:05.248Z,4.10
2017-11-26T09:10:32.786Z,3.90
2017-11-26T09:13:00.305Z,3.80
2017-11-26T09:15:27.852Z,3.80
2017-11-26T09:17:56.147Z,4.10
2017-11-26T09:20:23.693Z,4.10
2017-11-26T09:22:51.992Z,3.80
2017-11-26T09:25:19.549Z,3.70
2017-11-26T09:27:47.089Z,3.90
2017-11-26T09:30:15.406Z,5.00
2017-11-26T09:32:42.923Z,5.00
2017-11-26T09:35:10.488Z,5.40
2017-11-26T09:37:38.027Z,5.00
2017-11-26T09:40:05.563Z,4.60
2017-11-26T09:42:33.090Z,4.20
2017-11-26T09:45:00.628Z,4.10
2017-11-26T09:47:28.160Z,4.00
2017-11-26T09:49:55.707Z,3.90
2017-11-26T09:52:23.240Z,3.70
2017-11-26T09:54:50.783Z,3.50
2017-11-26T09:57:18.309Z,3.40
2017-11-26T09:59:45.879Z,3.60
2017-11-26T10:02:13.405Z,3.60
2017-11-26T10:04:40.928Z,3.60
2017-11-26T10:07:08.473Z,3.50
2017-11-26T10:09:36.003Z,3.40
2017-11-26T10:12:04.312Z,3.30
2017-11-26T10:14:31.846Z,3.30
2017-11-26T10:17:00.171Z,3.30
2017-11-26T10:19:27.699Z,3.30
2017-11-26T10:21:56.020Z,3.30
2017-11-26T10:24:23.552Z,3.30
2017-11-26T10:26:51.868Z,3.30
2017-11-26T10:29:19.397Z,3.30
2017-11-26T10:31:47.707Z,3.40
2017-11-26T10:34:15.236Z,3.40
2017-11-26T10:36:42.803Z,3.80
2017-11-26T10:39:10.320Z,4.10
2017-11-26T10:41:37.834Z,4.50
2017-11-26T10:44:05.367Z,4.80
2017-11-26T10:46:32.882Z,5.20
2017-11-26T10:49:01.183Z,4.80
2017-11-26T10:51:28.711Z,4.80
2017-11-26T10:53:56.259Z,4.80
2017-11-26T10:56:23.782Z,5.10
2017-11-26T10:58:51.329Z,5.00
2017-11-26T11:01:18.848Z,4.70
2017-11-26T11:03:46.393Z,4.50
2017-11-26T11:06:13.915Z,4.20
2017-11-26T11:08:42.216Z,3.80
2017-11-26T11:11:09.739Z,3.80
2017-11-26T11:13:37.304Z,3.70
2017-11-26T11:16:04.835Z,3.70
2017-11-26T11:18:32.353Z,3.70
2017-11-26T11:21:00.654Z,3.70
2017-11-26T11:23:28.180Z,3.70
2017-11-26T11:25:55.729Z,3.70
2017-11-26T11:28:23.244Z,3.70
2017-11-26T11:30:50.776Z,3.70
2017-11-26T11:33:19.132Z,3.70
2017-11-26T11:35:46.685Z,3.60
2017-11-26T11:38:14.211Z,3.70
2017-11-26T11:40:42.533Z,3.60
2017-11-26T11:43:10.137Z,3.60
2017-11-26T11:45:37.689Z,3.60
2017-11-26T11:48:05.209Z,3.60
2017-11-26T11:50:32.733Z,3.60
2017-11-26T11:53:01.039Z,3.40
2017-11-26T11:55:28.564Z,3.40
2017-11-26T11:57:56.111Z,3.40
2017-11-26T12:00:23.641Z,3.40
2017-11-26T12:02:51.187Z,3.40
2017-11-26T12:05:18.712Z,3.40
2017-11-26T12:07:46.256Z,3.50
2017-11-26T12:10:13.779Z,3.50
2017-11-26T12:12:41.333Z,3.40
2017-11-26T12:15:09.627Z,3.50
2017-11-26T12:17:37.173Z,3.50
2017-11-26T12:20:05.465Z,3.50
2017-11-26T12:22:33.771Z,3.50
2017-11-26T12:25:01.296Z,3.50
2017-11-26T12:27:28.829Z,3.50
2017-11-26T12:29:56.363Z,3.50
2017-11-26T12:32:23.889Z,3.50
2017-11-26T12:34:51.435Z,3.50
2017-11-26T12:37:18.956Z,3.50
2017-11-26T12:39:46.501Z,3.50
2017-11-26T12:42:14.026Z,3.40
2017-11-26T12:44:41.603Z,3.30
2017-11-26T12:47:09.138Z,3.40
2017-11-26T12:49:36.683Z,3.30
2017-11-26T12:52:04.209Z,3.30
2017-11-26T12:54:31.756Z,3.20
2017-11-26T12:56:59.289Z,3.20
2017-11-26T12:59:26.856Z,3.10
2017-11-26T13:01:54.384Z,3.00
2017-11-26T13:04:22.691Z,2.90
2017-11-26T13:06:50.215Z,2.90
2017-11-26T13:09:17.767Z,3.00
2017-11-26T13:11:45.287Z,2.90
2017-11-26T13:14:12.844Z,2.80
2017-11-26T13:16:40.377Z,2.60
2017-11-26T13:19:07.949Z,2.70
2017-11-26T13:21:36.239Z,2.80
2017-11-26T13:24:04.527Z,2.80
2017-11-26T13:26:32.842Z,2.80
2017-11-26T13:29:00.377Z,2.80
2017-11-26T13:31:28.720Z,2.80
2017-11-26T13:33:56.247Z,2.80
2017-11-26T13:36:23.794Z,2.70
2017-11-26T13:38:51.324Z,2.80
2017-11-26T13:41:18.884Z,2.80
2017-11-26T13:43:46.414Z,2.80
2017-11-26T13:46:13.964Z,2.70
2017-11-26T13:48:41.496Z,2.70
2017-11-26T13:51:09.075Z,2.70
2017-11-26T13:53:36.597Z,2.70
2017-11-26T13:56:04.123Z,2.60
2017-11-26T13:58:31.685Z,2.60
2017-11-26T14:00:59.207Z,2.60
2017-11-26T14:03:27.517Z,2.60
2017-11-26T14:05:55.057Z,2.60
2017-11-26T14:08:23.381Z,2.60
2017-11-26T14:10:50.903Z,2.60
2017-11-26T14:13:19.211Z,2.50
2017-11-26T14:15:46.742Z,2.50
2017-11-26T14:18:15.056Z,2.60
2017-11-26T14:20:42.586Z,2.50
2017-11-26T14:23:10.896Z,2.60
2017-11-26T14:25:38.438Z,2.50
2017-11-26T14:28:06.757Z,2.60
2017-11-26T14:30:34.278Z,2.60
2017-11-26T14:33:02.592Z,2.50
2017-11-26T14:35:30.119Z,2.50
2017-11-26T14:37:58.432Z,2.50
2017-11-26T14:40:25.965Z,2.50
2017-11-26T14:42:54.296Z,2.50
2017-11-26T14:45:21.823Z,2.50
2017-11-26T14:47:50.129Z,2.50
2017-11-26T14:50:17.651Z,2.50
2017-11-26T14:52:45.196Z,2.50
2017-11-26T14:55:12.725Z,2.50
2017-11-26T14:57:40.247Z,2.50
2017-11-26T15:00:07.793Z,2.50
2017-11-26T15:02:35.322Z,2.50
2017-11-26T15:05:02.863Z,2.40
2017-11-26T15:07:31.159Z,2.30
2017-11-26T15:09:58.703Z,2.40
2017-11-26T15:12:26.992Z,2.30
2017-11-26T15:14:55.299Z,2.30
2017-11-26T15:17:22.832Z,2.30
2017-11-26T15:19:51.143Z,2.30
2017-11-26T15:22:19.619Z,2.30
2017-11-26T15:24:47.166Z,2.40
2017-11-26T15:27:15.455Z,2.40
2017-11-26T15:29:43.814Z,2.30
2017-11-26T15:32:11.337Z,2.30
2017-11-26T15:34:38.878Z,2.30
2017-11-26T15:37:06.400Z,2.30
2017-11-26T15:39:33.952Z,2.30
2017-11-26T15:42:01.487Z,2.30
2017-11-26T15:44:29.104Z,2.20
2017-11-26T15:46:57.432Z,2.30
2017-11-26T15:49:24.979Z,2.30
2017-11-26T15:51:52.499Z,2.30
2017-11-26T15:54:20.040Z,2.20
2017-11-26T15:56:47.587Z,2.20
2017-11-26T15:59:15.132Z,2.20
2017-11-26T16:01:43.423Z,2.20
2017-11-26T16:04:10.976Z,2.20
2017-11-26T16:06:39.267Z,2.10
2017-11-26T16:09:07.601Z,2.10
2017-11-26T16:11:35.138Z,2.10
2017-11-26T16:14:02.666Z,2.10
2017-11-26T16:16:30.987Z,2.20
2017-11-26T16:18:58.519Z,2.20
2017-11-26T16:21:26.827Z,2.20
2017-11-26T16:23:54.366Z,2.20
2017-11-26T16:26:22.668Z,2.20
2017-11-26T16:28:50.193Z,2.20
2017-11-26T16:31:17.740Z,2.20
2017-11-26T16:33:45.268Z,2.20
2017-11-26T16:36:12.808Z,2.20
2017-11-26T16:38:41.113Z,2.10
2017-11-26T16:41:08.691Z,2.10
2017-11-26T16:43:36.225Z,2.10
2017-11-26T16:46:04.514Z,2.10
2017-11-26T16:48:32.887Z,2.10
2017-11-26T16:51:01.175Z,2.20
2017-11-26T16:53:29.492Z,2.20
2017-11-26T16:55:57.014Z,2.20
2017-11-26T16:58:25.320Z,2.10
2017-11-26T17:00:52.839Z,2.10
2017-11-26T17:03:20.379Z,2.10
2017-11-26T17:05:47.904Z,2.10
2017-11-26T17:08:16.216Z,2.10
2017-11-26T17:10:43.750Z,2.10
2017-11-26T17:13:12.065Z,2.10
2017-11-26T17:15:39.587Z,2.00
2017-11-26T17:18:07.883Z,2.10
2017-11-26T17:20:36.188Z,2.10
2017-11-26T17:23:03.708Z,2.10
2017-11-26T17:25:32.025Z,2.00
2017-11-26T17:27:59.553Z,2.00
2017-11-26T17:30:27.867Z,2.00
2017-11-26T17:32:55.383Z,2.00
2017-11-26T17:35:22.934Z,2.00
2017-11-26T17:37:50.464Z,1.90
2017-11-26T17:40:18.010Z,1.90
2017-11-26T17:42:45.533Z,1.90
2017-11-26T17:45:13.100Z,1.90
2017-11-26T17:47:40.632Z,1.90
2017-11-26T17:50:08.177Z,1.90
2017-11-26T17:52:35.699Z,1.90
2017-11-26T17:55:04.021Z,2.00
2017-11-26T17:57:31.542Z,1.90
2017-11-26T17:59:59.852Z,2.00
2017-11-26T18:02:27.375Z,1.90
2017-11-26T18:04:54.916Z,2.00
2017-11-26T18:07:22.443Z,2.00
2017-11-26T18:09:49.994Z,2.00
2017-11-26T18:12:17.514Z,2.00
2017-11-26T18:14:45.054Z,1.90
2017-11-26T18:17:12.579Z,1.90
2017-11-26T18:19:40.129Z,2.00
2017-11-26T18:22:08.417Z,2.00
2017-11-26T18:24:36.734Z,2.00
2017-11-26T18:27:04.263Z,2.00
2017-11-26T18:29:31.810Z,2.00
2017-11-26T18:31:59.333Z,2.00
2017-11-26T18:34:26.937Z,2.10
2017-11-26T18:36:54.458Z,2.10
2017-11-26T18:39:22.019Z,2.00
2017-11-26T18:41:49.550Z,2.10
2017-11-26T18:44:17.862Z,2.10
2017-11-26T18:46:45.384Z,2.10
2017-11-26T18:49:12.927Z,2.10
2017-11-26T18:51:40.459Z,2.10
2017-11-26T18:54:08.010Z,2.10
2017-11-26T18:56:36.300Z,2.20
2017-11-26T18:59:03.859Z,2.20
2017-11-26T19:01:31.387Z,2.20
2017-11-26T19:03:58.941Z,2.20
2017-11-26T19:06:26.475Z,2.30
2017-11-26T19:08:54.067Z,2.20
2017-11-26T19:11:21.592Z,2.20
2017-11-26T19:13:49.141Z,2.20
2017-11-26T19:16:16.670Z,2.20
2017-11-26T19:18:44.254Z,2.30
2017-11-26T19:21:12.542Z,2.30
2017-11-26T19:23:40.851Z,2.30
2017-11-26T19:26:08.375Z,2.20
2017-11-26T19:28:36.687Z,2.20
2017-11-26T19:31:04.268Z,2.20
2017-11-26T19:33:31.844Z,2.30
2017-11-26T19:35:59.393Z,2.30
2017-11-26T19:38:26.916Z,2.30
2017-11-26T19:40:55.229Z,2.30
2017-11-26T19:43:22.752Z,2.30
2017-11-26T19:45:51.059Z,2.20
2017-11-26T19:48:18.579Z,2.20
2017-11-26T19:50:46.132Z,2.30
2017-11-26T19:53:13.660Z,2.30
2017-11-26T19:55:41.206Z,2.30
2017-11-26T19:58:08.731Z,2.30
2017-11-26T20:00:36.323Z,2.30
2017-11-26T20:03:04.612Z,2.30
2017-11-26T20:05:32.137Z,2.20
2017-11-26T20:07:59.685Z,2.30
2017-11-26T20:10:27.254Z,2.30
2017-11-26T20:12:54.800Z,2.30
2017-11-26T20:15:22.330Z,2.20
2017-11-26T20:17:49.881Z,2.20
2017-11-26T20:20:18.188Z,2.30
2017-11-26T20:22:45.763Z,2.20
2017-11-26T20:25:13.285Z,2.20
2017-11-26T20:27:41.579Z,2.30
2017-11-26T20:30:09.128Z,2.30
2017-11-26T20:32:37.421Z,2.30
2017-11-26T20:35:04.967Z,2.30
2017-11-26T20:37:33.260Z,2.30
2017-11-26T20:40:01.615Z,2.20
2017-11-26T20:42:29.144Z,2.20
2017-11-26T20:44:56.688Z,2.20
2017-11-26T20:47:24.229Z,2.20
2017-11-26T20:49:51.780Z,2.20
2017-11-26T20:52:19.350Z,2.20
2017-11-26T20:54:47.670Z,2.30
2017-11-26T20:57:15.208Z,2.30
2017-11-26T20:59:42.747Z,2.30
2017-11-26T21:02:11.049Z,2.30
2017-11-26T21:04:38.617Z,2.30
2017-11-26T21:07:06.148Z,2.30
2017-11-26T21:09:33.700Z,2.30
2017-11-26T21:12:01.239Z,2.30
2017-11-26T21:14:28.793Z,2.30
2017-11-26T21:16:56.320Z,2.30
2017-11-26T21:19:24.650Z,2.30
2017-11-26T21:21:52.180Z,2.30
2017-11-26T21:24:19.713Z,2.30
2017-11-26T21:26:47.267Z,2.30
2017-11-26T21:29:14.798Z,2.30
2017-11-26T21:31:42.354Z,2.30
2017-11-26T21:34:09.924Z,2.30
2017-11-26T21:36:37.474Z,2.30
2017-11-26T21:39:05.005Z,2.30
2017-11-26T21:41:32.559Z,2.30
2017-11-26T21:44:00.081Z,2.40
2017-11-26T21:46:27.629Z,2.40
2017-11-26T21:48:55.160Z,2.40
2017-11-26T21:51:23.467Z,2.40
2017-11-26T21:53:50.987Z,2.40
2017-11-26T21:56:18.533Z,2.40
2017-11-26T21:58:46.061Z,2.40
2017-11-26T22:01:13.610Z,2.30
2017-11-26T22:03:41.904Z,2.40
2017-11-26T22:06:09.479Z,2.30
2017-11-26T22:08:36.999Z,2.30
2017-11-26T22:11:04.523Z,2.40
2017-11-26T22:13:32.104Z,2.40
2017-11-26T22:15:59.608Z,2.40
2017-11-26T22:18:27.917Z,2.30
2017-11-26T22:20:55.454Z,2.30
2017-11-26T22:23:23.013Z,2.30
2017-11-26T22:25:51.305Z,2.30
2017-11-26T22:28:18.853Z,2.30
2017-11-26T22:30:47.139Z,2.30
2017-11-26T22:33:15.471Z,2.30
2017-11-26T22:35:43.012Z,2.30
2017-11-26T22:38:10.536Z,2.30
2017-11-26T22:40:38.848Z,2.30
2017-11-26T22:43:06.380Z,2.30
2017-11-26T22:45:34.699Z,2.20
2017-11-26T22:48:02.250Z,2.20
2017-11-26T22:50:29.809Z,2.30
2017-11-26T22:52:57.340Z,2.30
2017-11-26T22:55:25.684Z,2.30
2017-11-26T22:57:53.202Z,2.30
2017-11-26T23:00:23.375Z,2.30
2017-11-26T23:02:50.924Z,2.30
2017-11-26T23:05:18.454Z,2.30
2017-11-26T23:07:46.772Z,2.30
2017-11-26T23:10:14.311Z,2.30
2017-11-26T23:12:41.856Z,2.30
2017-11-26T23:15:10.156Z,2.40
2017-11-26T23:17:37.696Z,2.40
2017-11-26T23:20:05.999Z,2.30
2017-11-26T23:22:33.551Z,2.30
2017-11-26T23:25:01.079Z,2.30
2017-11-26T23:27:28.624Z,2.30
2017-11-26T23:29:56.140Z,2.30
2017-11-26T23:32:24.456Z,2.30
2017-11-26T23:34:51.980Z,2.30
2017-11-26T23:37:20.316Z,2.20
2017-11-26T23:39:47.846Z,2.20
2017-11-26T23:42:15.379Z,2.20
2017-11-26T23:44:43.693Z,2.20
2017-11-26T23:47:11.217Z,2.20
2017-11-26T23:49:39.535Z,2.30
2017-11-26T23:52:07.062Z,2.30
2017-11-26T23:54:35.380Z,2.30
2017-11-26T23:57:02.901Z,2.30
2017-11-26T23:59:30.448Z,2.30
